Terminal Aerodrome Forecast
Issued by NWS Amarillo, TX

Home | Current Version | Previous Version | Text Only | Print | Product List | Glossary On
Versions: 1 2 3 4 5 6 7 8 9 10 11 12 13 14 15
000
FTUS44 KAMA 181700
TAFGUY
TAF
KGUY 181734Z 1818/1918 36005KT P6SM SCT008 OVC015
     FM190000 14005KT P6SM OVC012
     FM190600 22004KT 3SM BR OVC008
     FM191600 23005KT P6SM OVC010=

USA.gov is the U.S. government's official web portal to all federal, state and local government web resources and services.